sensor_id;sensor_type;location;lat;lon;timestamp;temperature;humidity
69901;DHT22;57183;50.930;5.406;2023-05-10T00:01:48;14.10;99.90
69901;DHT22;57183;50.930;5.406;2023-05-10T00:04:13;14.20;99.90
69901;DHT22;57183;50.930;5.406;2023-05-10T00:06:39;14.10;99.90
69901;DHT22;57183;50.930;5.406;2023-05-10T00:09:04;14.10;99.90
69901;DHT22;57183;50.930;5.406;2023-05-10T00:11:30;14.10;99.90
69901;DHT22;57183;50.930;5.406;2023-05-10T00:13:56;14.10;99.90
69901;DHT22;57183;50.930;5.406;2023-05-10T00:16:21;14.10;99.90
69901;DHT22;57183;50.930;5.406;2023-05-10T00:18:47;14.10;99.90
69901;DHT22;57183;50.930;5.406;2023-05-10T00:21:13;14.20;99.90
69901;DHT22;57183;50.930;5.406;2023-05-10T00:23:39;14.30;99.90
69901;DHT22;57183;50.930;5.406;2023-05-10T00:26:04;14.20;99.90
69901;DHT22;57183;50.930;5.406;2023-05-10T00:28:30;14.20;99.90
69901;DHT22;57183;50.930;5.406;2023-05-10T00:30:56;14.30;99.90
69901;DHT22;57183;50.930;5.406;2023-05-10T00:33:21;14.30;99.90
69901;DHT22;57183;50.930;5.406;2023-05-10T00:35:47;14.30;99.90
69901;DHT22;57183;50.930;5.406;2023-05-10T00:38:13;14.20;99.90
69901;DHT22;57183;50.930;5.406;2023-05-10T00:40:38;14.20;99.90
69901;DHT22;57183;50.930;5.406;2023-05-10T00:43:04;14.20;99.90
69901;DHT22;57183;50.930;5.406;2023-05-10T00:45:33;14.30;99.90
69901;DHT22;57183;50.930;5.406;2023-05-10T00:48:02;14.30;99.90
69901;DHT22;57183;50.930;5.406;2023-05-10T00:50:30;14.30;99.90
69901;DHT22;57183;50.930;5.406;2023-05-10T00:52:57;14.30;99.90
69901;DHT22;57183;50.930;5.406;2023-05-10T00:55:24;14.40;99.90
69901;DHT22;57183;50.930;5.406;2023-05-10T00:57:50;14.30;99.90
69901;DHT22;57183;50.930;5.406;2023-05-10T01:00:16;14.40;99.90
69901;DHT22;57183;50.930;5.406;2023-05-10T01:02:44;14.40;99.90
69901;DHT22;57183;50.930;5.406;2023-05-10T01:05:11;14.40;99.90
69901;DHT22;57183;50.930;5.406;2023-05-10T01:07:37;14.40;99.90
69901;DHT22;57183;50.930;5.406;2023-05-10T01:10:04;14.30;99.90
69901;DHT22;57183;50.930;5.406;2023-05-10T01:12:30;14.40;99.90
69901;DHT22;57183;50.930;5.406;2023-05-10T01:14:57;14.40;99.90
69901;DHT22;57183;50.930;5.406;2023-05-10T01:17:24;14.30;99.90
69901;DHT22;57183;50.930;5.406;2023-05-10T01:19:49;14.20;99.90
69901;DHT22;57183;50.930;5.406;2023-05-10T01:25:24;14.10;99.90
69901;DHT22;57183;50.930;5.406;2023-05-10T01:32:57;14.00;99.90
69901;DHT22;57183;50.930;5.406;2023-05-10T01:38:31;13.90;99.90
69901;DHT22;57183;50.930;5.406;2023-05-10T01:46:41;13.80;99.90
69901;DHT22;57183;50.930;5.406;2023-05-10T01:49:13;13.70;99.90
69901;DHT22;57183;50.930;5.406;2023-05-10T01:51:51;13.80;99.90
69901;DHT22;57183;50.930;5.406;2023-05-10T01:54:19;13.80;99.90
69901;DHT22;57183;50.930;5.406;2023-05-10T01:56:49;13.90;99.90
69901;DHT22;57183;50.930;5.406;2023-05-10T01:59:18;13.90;99.90
69901;DHT22;57183;50.930;5.406;2023-05-10T02:01:46;13.90;99.90
69901;DHT22;57183;50.930;5.406;2023-05-10T02:04:16;13.80;99.90
69901;DHT22;57183;50.930;5.406;2023-05-10T02:06:43;13.90;99.90
69901;DHT22;57183;50.930;5.406;2023-05-10T02:09:11;13.90;99.90
69901;DHT22;57183;50.930;5.406;2023-05-10T02:11:39;13.80;99.90
69901;DHT22;57183;50.930;5.406;2023-05-10T02:14:09;13.80;99.90
69901;DHT22;57183;50.930;5.406;2023-05-10T02:16:38;13.80;99.90
69901;DHT22;57183;50.930;5.406;2023-05-10T02:19:05;13.90;99.90
69901;DHT22;57183;50.930;5.406;2023-05-10T02:21:32;14.00;99.90
69901;DHT22;57183;50.930;5.406;2023-05-10T02:23:59;14.00;99.90
69901;DHT22;57183;50.930;5.406;2023-05-10T02:26:26;14.10;99.90
69901;DHT22;57183;50.930;5.406;2023-05-10T02:28:53;14.10;99.90
69901;DHT22;57183;50.930;5.406;2023-05-10T02:31:20;14.10;99.90
69901;DHT22;57183;50.930;5.406;2023-05-10T02:33:47;14.10;99.90
69901;DHT22;57183;50.930;5.406;2023-05-10T02:36:14;13.90;99.90
69901;DHT22;57183;50.930;5.406;2023-05-10T02:38:41;13.90;99.90
69901;DHT22;57183;50.930;5.406;2023-05-10T02:41:08;14.00;99.90
69901;DHT22;57183;50.930;5.406;2023-05-10T02:43:36;14.00;99.90
69901;DHT22;57183;50.930;5.406;2023-05-10T02:46:03;13.90;99.90
69901;DHT22;57183;50.930;5.406;2023-05-10T02:48:29;14.00;99.90
69901;DHT22;57183;50.930;5.406;2023-05-10T02:51:00;13.90;99.90
69901;DHT22;57183;50.930;5.406;2023-05-10T02:53:31;13.80;99.90
69901;DHT22;57183;50.930;5.406;2023-05-10T02:55:59;13.80;99.90
69901;DHT22;57183;50.930;5.406;2023-05-10T02:58:26;13.80;99.90
69901;DHT22;57183;50.930;5.406;2023-05-10T03:00:52;13.70;99.90
69901;DHT22;57183;50.930;5.406;2023-05-10T03:03:19;13.80;99.90
69901;DHT22;57183;50.930;5.406;2023-05-10T03:05:45;14.00;99.90
69901;DHT22;57183;50.930;5.406;2023-05-10T03:08:11;14.00;99.90
69901;DHT22;57183;50.930;5.406;2023-05-10T03:13:38;14.00;99.90
69901;DHT22;57183;50.930;5.406;2023-05-10T03:16:15;14.00;99.90
69901;DHT22;57183;50.930;5.406;2023-05-10T03:18:50;14.10;99.90
69901;DHT22;57183;50.930;5.406;2023-05-10T03:21:17;14.10;99.90
69901;DHT22;57183;50.930;5.406;2023-05-10T03:23:46;14.00;99.90
69901;DHT22;57183;50.930;5.406;2023-05-10T03:26:20;13.90;99.90
69901;DHT22;57183;50.930;5.406;2023-05-10T03:28:49;14.00;99.90
69901;DHT22;57183;50.930;5.406;2023-05-10T03:31:15;14.00;99.90
69901;DHT22;57183;50.930;5.406;2023-05-10T03:33:48;14.00;99.90
69901;DHT22;57183;50.930;5.406;2023-05-10T03:36:14;14.00;99.90
69901;DHT22;57183;50.930;5.406;2023-05-10T03:38:39;14.10;99.90
69901;DHT22;57183;50.930;5.406;2023-05-10T03:41:05;14.10;99.90
69901;DHT22;57183;50.930;5.406;2023-05-10T03:43:31;14.20;99.90
69901;DHT22;57183;50.930;5.406;2023-05-10T03:45:57;14.20;99.90
69901;DHT22;57183;50.930;5.406;2023-05-10T03:48:22;14.20;99.90
69901;DHT22;57183;50.930;5.406;2023-05-10T03:50:48;14.30;99.90
69901;DHT22;57183;50.930;5.406;2023-05-10T03:53:15;14.30;99.90
69901;DHT22;57183;50.930;5.406;2023-05-10T03:55:41;14.30;99.90
69901;DHT22;57183;50.930;5.406;2023-05-10T03:58:07;14.20;99.90
69901;DHT22;57183;50.930;5.406;2023-05-10T04:00:35;14.20;99.90
69901;DHT22;57183;50.930;5.406;2023-05-10T04:03:01;14.10;99.90
69901;DHT22;57183;50.930;5.406;2023-05-10T04:05:27;14.00;99.90
69901;DHT22;57183;50.930;5.406;2023-05-10T04:07:52;14.00;99.90
69901;DHT22;57183;50.930;5.406;2023-05-10T04:10:18;14.00;99.90
69901;DHT22;57183;50.930;5.406;2023-05-10T04:12:44;13.90;99.90
69901;DHT22;57183;50.930;5.406;2023-05-10T04:15:09;13.90;99.90
69901;DHT22;57183;50.930;5.406;2023-05-10T04:17:35;13.80;99.90
69901;DHT22;57183;50.930;5.406;2023-05-10T04:20:01;13.70;99.90
69901;DHT22;57183;50.930;5.406;2023-05-10T04:22:27;13.60;99.90
69901;DHT22;57183;50.930;5.406;2023-05-10T04:24:54;13.50;99.90
69901;DHT22;57183;50.930;5.406;2023-05-10T04:27:20;13.40;99.90
69901;DHT22;57183;50.930;5.406;2023-05-10T04:29:45;13.40;99.90
69901;DHT22;57183;50.930;5.406;2023-05-10T04:32:11;13.20;99.90
69901;DHT22;57183;50.930;5.406;2023-05-10T04:34:37;13.20;99.90
69901;DHT22;57183;50.930;5.406;2023-05-10T04:37:02;13.30;99.90
69901;DHT22;57183;50.930;5.406;2023-05-10T04:39:28;13.40;99.90
69901;DHT22;57183;50.930;5.406;2023-05-10T04:41:54;13.40;99.90
69901;DHT22;57183;50.930;5.406;2023-05-10T04:44:20;13.30;99.90
69901;DHT22;57183;50.930;5.406;2023-05-10T04:46:45;13.40;99.90
69901;DHT22;57183;50.930;5.406;2023-05-10T04:49:11;13.40;99.90
69901;DHT22;57183;50.930;5.406;2023-05-10T04:51:37;13.40;99.90
69901;DHT22;57183;50.930;5.406;2023-05-10T04:54:02;13.40;99.90
69901;DHT22;57183;50.930;5.406;2023-05-10T04:56:28;13.40;99.90
69901;DHT22;57183;50.930;5.406;2023-05-10T04:58:54;13.30;99.90
69901;DHT22;57183;50.930;5.406;2023-05-10T05:01:19;13.30;99.90
69901;DHT22;57183;50.930;5.406;2023-05-10T05:03:45;13.40;99.90
69901;DHT22;57183;50.930;5.406;2023-05-10T05:06:11;13.30;99.90
69901;DHT22;57183;50.930;5.406;2023-05-10T05:08:37;13.30;99.90
69901;DHT22;57183;50.930;5.406;2023-05-10T05:11:02;13.20;99.90
69901;DHT22;57183;50.930;5.406;2023-05-10T05:13:28;13.20;99.90
69901;DHT22;57183;50.930;5.406;2023-05-10T05:15:54;13.20;99.90
69901;DHT22;57183;50.930;5.406;2023-05-10T05:18:20;13.20;99.90
69901;DHT22;57183;50.930;5.406;2023-05-10T05:20:46;13.30;99.90
69901;DHT22;57183;50.930;5.406;2023-05-10T05:23:12;13.30;99.90
69901;DHT22;57183;50.930;5.406;2023-05-10T05:25:37;13.40;99.90
69901;DHT22;57183;50.930;5.406;2023-05-10T05:28:03;13.30;99.90
69901;DHT22;57183;50.930;5.406;2023-05-10T05:30:29;13.30;99.90
69901;DHT22;57183;50.930;5.406;2023-05-10T05:32:54;13.20;99.90
69901;DHT22;57183;50.930;5.406;2023-05-10T05:35:20;13.20;99.90
69901;DHT22;57183;50.930;5.406;2023-05-10T05:37:46;13.10;99.90
69901;DHT22;57183;50.930;5.406;2023-05-10T05:40:14;13.00;99.90
69901;DHT22;57183;50.930;5.406;2023-05-10T05:42:40;13.00;99.90
69901;DHT22;57183;50.930;5.406;2023-05-10T05:45:07;12.90;99.90
69901;DHT22;57183;50.930;5.406;2023-05-10T05:47:34;12.90;99.90
69901;DHT22;57183;50.930;5.406;2023-05-10T05:49:59;12.90;99.90
69901;DHT22;57183;50.930;5.406;2023-05-10T05:52:25;12.90;99.90
69901;DHT22;57183;50.930;5.406;2023-05-10T05:54:51;12.90;99.90
69901;DHT22;57183;50.930;5.406;2023-05-10T05:57:16;13.00;99.90
69901;DHT22;57183;50.930;5.406;2023-05-10T05:59:42;13.00;99.90
69901;DHT22;57183;50.930;5.406;2023-05-10T06:02:10;13.20;99.90
69901;DHT22;57183;50.930;5.406;2023-05-10T06:04:35;13.20;99.90
69901;DHT22;57183;50.930;5.406;2023-05-10T06:07:01;13.30;99.90
69901;DHT22;57183;50.930;5.406;2023-05-10T06:09:27;13.20;99.90
69901;DHT22;57183;50.930;5.406;2023-05-10T06:11:52;13.20;99.90
69901;DHT22;57183;50.930;5.406;2023-05-10T06:14:20;13.20;99.90
69901;DHT22;57183;50.930;5.406;2023-05-10T06:16:46;13.30;99.90
69901;DHT22;57183;50.930;5.406;2023-05-10T06:19:11;13.40;99.90
69901;DHT22;57183;50.930;5.406;2023-05-10T06:21:37;13.40;99.90
69901;DHT22;57183;50.930;5.406;2023-05-10T06:24:03;13.30;99.90
69901;DHT22;57183;50.930;5.406;2023-05-10T06:26:29;13.30;99.90
69901;DHT22;57183;50.930;5.406;2023-05-10T06:28:55;13.10;99.90
69901;DHT22;57183;50.930;5.406;2023-05-10T06:31:20;13.10;99.90
69901;DHT22;57183;50.930;5.406;2023-05-10T06:33:46;13.10;99.90
69901;DHT22;57183;50.930;5.406;2023-05-10T06:36:12;13.20;99.90
69901;DHT22;57183;50.930;5.406;2023-05-10T06:38:38;13.30;99.90
69901;DHT22;57183;50.930;5.406;2023-05-10T06:41:04;13.30;99.90
69901;DHT22;57183;50.930;5.406;2023-05-10T06:43:30;13.30;99.90
69901;DHT22;57183;50.930;5.406;2023-05-10T06:45:57;13.30;99.90
69901;DHT22;57183;50.930;5.406;2023-05-10T06:48:22;13.30;99.90
69901;DHT22;57183;50.930;5.406;2023-05-10T06:50:48;13.50;99.90
69901;DHT22;57183;50.930;5.406;2023-05-10T06:53:14;13.50;99.90
69901;DHT22;57183;50.930;5.406;2023-05-10T06:55:40;13.50;99.90
69901;DHT22;57183;50.930;5.406;2023-05-10T06:58:06;13.60;99.90
69901;DHT22;57183;50.930;5.406;2023-05-10T07:00:32;13.70;99.90
69901;DHT22;57183;50.930;5.406;2023-05-10T07:02:57;13.70;99.90
69901;DHT22;57183;50.930;5.406;2023-05-10T07:05:23;13.70;99.90
69901;DHT22;57183;50.930;5.406;2023-05-10T07:07:49;13.80;99.90
69901;DHT22;57183;50.930;5.406;2023-05-10T07:10:15;13.70;99.90
69901;DHT22;57183;50.930;5.406;2023-05-10T07:12:40;13.70;99.90
69901;DHT22;57183;50.930;5.406;2023-05-10T07:15:07;13.70;99.90
69901;DHT22;57183;50.930;5.406;2023-05-10T07:17:33;13.80;99.90
69901;DHT22;57183;50.930;5.406;2023-05-10T07:19:59;13.70;99.90
69901;DHT22;57183;50.930;5.406;2023-05-10T07:22:25;13.70;99.90
69901;DHT22;57183;50.930;5.406;2023-05-10T07:24:51;13.70;99.90
69901;DHT22;57183;50.930;5.406;2023-05-10T07:27:17;13.70;99.90
69901;DHT22;57183;50.930;5.406;2023-05-10T07:29:43;13.70;99.90
69901;DHT22;57183;50.930;5.406;2023-05-10T07:32:08;13.80;99.90
69901;DHT22;57183;50.930;5.406;2023-05-10T07:34:34;13.70;99.90
69901;DHT22;57183;50.930;5.406;2023-05-10T07:37:00;13.80;99.90
69901;DHT22;57183;50.930;5.406;2023-05-10T07:39:27;13.80;99.90
69901;DHT22;57183;50.930;5.406;2023-05-10T07:41:53;13.90;99.90
69901;DHT22;57183;50.930;5.406;2023-05-10T07:44:19;14.00;99.90
69901;DHT22;57183;50.930;5.406;2023-05-10T07:46:46;14.00;99.90
69901;DHT22;57183;50.930;5.406;2023-05-10T07:49:11;14.00;99.90
69901;DHT22;57183;50.930;5.406;2023-05-10T07:51:37;14.00;99.90
69901;DHT22;57183;50.930;5.406;2023-05-10T07:54:03;13.90;99.90
69901;DHT22;57183;50.930;5.406;2023-05-10T07:56:32;13.90;99.90
69901;DHT22;57183;50.930;5.406;2023-05-10T07:59:01;13.90;99.90
69901;DHT22;57183;50.930;5.406;2023-05-10T08:01:31;13.90;99.90
69901;DHT22;57183;50.930;5.406;2023-05-10T08:04:00;14.00;99.90
69901;DHT22;57183;50.930;5.406;2023-05-10T08:06:26;14.00;99.90
69901;DHT22;57183;50.930;5.406;2023-05-10T08:08:53;14.10;99.90
69901;DHT22;57183;50.930;5.406;2023-05-10T08:11:22;14.20;99.90
69901;DHT22;57183;50.930;5.406;2023-05-10T08:13:49;14.20;99.90
69901;DHT22;57183;50.930;5.406;2023-05-10T08:16:16;14.10;99.90
69901;DHT22;57183;50.930;5.406;2023-05-10T08:18:43;14.20;99.90
69901;DHT22;57183;50.930;5.406;2023-05-10T08:21:10;14.20;99.90
69901;DHT22;57183;50.930;5.406;2023-05-10T08:23:37;14.00;99.90
69901;DHT22;57183;50.930;5.406;2023-05-10T08:26:03;14.00;99.90
69901;DHT22;57183;50.930;5.406;2023-05-10T08:28:28;13.90;99.90
69901;DHT22;57183;50.930;5.406;2023-05-10T08:30:54;13.90;99.90
69901;DHT22;57183;50.930;5.406;2023-05-10T08:33:20;13.70;99.90
69901;DHT22;57183;50.930;5.406;2023-05-10T08:35:45;13.50;99.90
69901;DHT22;57183;50.930;5.406;2023-05-10T08:38:11;13.40;99.90
69901;DHT22;57183;50.930;5.406;2023-05-10T08:40:42;13.30;99.90
69901;DHT22;57183;50.930;5.406;2023-05-10T08:43:12;13.20;99.90
69901;DHT22;57183;50.930;5.406;2023-05-10T08:45:41;13.20;99.90
69901;DHT22;57183;50.930;5.406;2023-05-10T08:48:09;13.00;99.90
69901;DHT22;57183;50.930;5.406;2023-05-10T08:50:39;12.90;99.90
69901;DHT22;57183;50.930;5.406;2023-05-10T08:53:09;13.00;99.90
69901;DHT22;57183;50.930;5.406;2023-05-10T08:55:36;13.00;99.90
69901;DHT22;57183;50.930;5.406;2023-05-10T08:58:06;13.10;99.90
69901;DHT22;57183;50.930;5.406;2023-05-10T09:00:32;13.10;99.90
69901;DHT22;57183;50.930;5.406;2023-05-10T09:02:59;13.20;99.90
69901;DHT22;57183;50.930;5.406;2023-05-10T09:05:25;13.20;99.90
69901;DHT22;57183;50.930;5.406;2023-05-10T09:07:51;13.40;99.90
69901;DHT22;57183;50.930;5.406;2023-05-10T09:10:17;13.40;99.90
69901;DHT22;57183;50.930;5.406;2023-05-10T09:12:43;13.30;99.90
69901;DHT22;57183;50.930;5.406;2023-05-10T09:15:16;13.30;99.90
69901;DHT22;57183;50.930;5.406;2023-05-10T09:17:44;13.30;99.90
69901;DHT22;57183;50.930;5.406;2023-05-10T09:20:11;13.30;99.90
69901;DHT22;57183;50.930;5.406;2023-05-10T09:22:36;13.40;99.90
69901;DHT22;57183;50.930;5.406;2023-05-10T09:25:14;13.40;99.90
69901;DHT22;57183;50.930;5.406;2023-05-10T09:27:41;13.40;99.90
69901;DHT22;57183;50.930;5.406;2023-05-10T09:30:07;13.50;99.90
69901;DHT22;57183;50.930;5.406;2023-05-10T09:35:10;13.40;99.90
69901;DHT22;57183;50.930;5.406;2023-05-10T09:37:38;13.40;99.90
69901;DHT22;57183;50.930;5.406;2023-05-10T09:40:16;13.50;99.90
69901;DHT22;57183;50.930;5.406;2023-05-10T09:42:58;13.80;99.90
69901;DHT22;57183;50.930;5.406;2023-05-10T09:45:26;13.80;99.90
69901;DHT22;57183;50.930;5.406;2023-05-10T09:47:52;14.00;99.90
69901;DHT22;57183;50.930;5.406;2023-05-10T09:50:19;14.20;99.90
69901;DHT22;57183;50.930;5.406;2023-05-10T09:55:22;14.40;99.90
69901;DHT22;57183;50.930;5.406;2023-05-10T09:57:58;14.30;99.90
69901;DHT22;57183;50.930;5.406;2023-05-10T10:00:24;14.30;99.90
69901;DHT22;57183;50.930;5.406;2023-05-10T10:02:59;14.00;99.90
69901;DHT22;57183;50.930;5.406;2023-05-10T10:05:44;13.90;99.90
69901;DHT22;57183;50.930;5.406;2023-05-10T10:08:10;14.00;99.90
69901;DHT22;57183;50.930;5.406;2023-05-10T10:10:36;14.10;99.90
69901;DHT22;57183;50.930;5.406;2023-05-10T10:13:02;13.90;99.90
69901;DHT22;57183;50.930;5.406;2023-05-10T10:15:28;14.00;99.90
69901;DHT22;57183;50.930;5.406;2023-05-10T10:17:54;14.00;99.90
69901;DHT22;57183;50.930;5.406;2023-05-10T10:20:21;14.00;99.90
69901;DHT22;57183;50.930;5.406;2023-05-10T10:22:48;14.00;99.90
69901;DHT22;57183;50.930;5.406;2023-05-10T10:25:15;14.20;99.90
69901;DHT22;57183;50.930;5.406;2023-05-10T10:36:01;14.20;99.90
69901;DHT22;57183;50.930;5.406;2023-05-10T10:38:54;14.20;99.90
69901;DHT22;57183;50.930;5.406;2023-05-10T10:41:35;14.10;99.90
69901;DHT22;57183;50.930;5.406;2023-05-10T10:55:00;14.10;99.90
69901;DHT22;57183;50.930;5.406;2023-05-10T10:57:27;14.10;99.90
69901;DHT22;57183;50.930;5.406;2023-05-10T11:00:17;14.30;99.90
69901;DHT22;57183;50.930;5.406;2023-05-10T11:02:44;14.30;99.90
69901;DHT22;57183;50.930;5.406;2023-05-10T11:07:59;14.50;99.90
69901;DHT22;57183;50.930;5.406;2023-05-10T11:10:26;14.50;99.90
69901;DHT22;57183;50.930;5.406;2023-05-10T11:13:08;14.50;99.90
69901;DHT22;57183;50.930;5.406;2023-05-10T11:15:39;14.70;99.90
69901;DHT22;57183;50.930;5.406;2023-05-10T11:18:28;14.90;99.90
69901;DHT22;57183;50.930;5.406;2023-05-10T11:21:02;14.90;99.90
69901;DHT22;57183;50.930;5.406;2023-05-10T11:26:12;15.00;99.90
69901;DHT22;57183;50.930;5.406;2023-05-10T11:28:45;14.90;99.90
69901;DHT22;57183;50.930;5.406;2023-05-10T11:31:14;15.00;99.90
69901;DHT22;57183;50.930;5.406;2023-05-10T11:33:51;14.90;99.90
69901;DHT22;57183;50.930;5.406;2023-05-10T11:36:36;14.70;99.90
69901;DHT22;57183;50.930;5.406;2023-05-10T11:39:02;14.60;99.90
69901;DHT22;57183;50.930;5.406;2023-05-10T11:41:29;14.40;99.90
69901;DHT22;57183;50.930;5.406;2023-05-10T11:43:57;14.30;99.90
69901;DHT22;57183;50.930;5.406;2023-05-10T11:46:24;14.10;99.90
69901;DHT22;57183;50.930;5.406;2023-05-10T11:48:52;14.20;99.90
69901;DHT22;57183;50.930;5.406;2023-05-10T11:51:22;14.20;99.90
69901;DHT22;57183;50.930;5.406;2023-05-10T11:53:50;14.30;99.90
69901;DHT22;57183;50.930;5.406;2023-05-10T11:56:17;14.50;99.90
69901;DHT22;57183;50.930;5.406;2023-05-10T11:58:43;14.50;99.90
69901;DHT22;57183;50.930;5.406;2023-05-10T12:01:09;14.70;99.90
69901;DHT22;57183;50.930;5.406;2023-05-10T12:03:36;14.80;99.90
69901;DHT22;57183;50.930;5.406;2023-05-10T12:06:03;14.80;99.90
69901;DHT22;57183;50.930;5.406;2023-05-10T12:08:29;14.80;99.90
69901;DHT22;57183;50.930;5.406;2023-05-10T12:11:07;14.70;99.90
69901;DHT22;57183;50.930;5.406;2023-05-10T12:13:36;14.60;99.90
69901;DHT22;57183;50.930;5.406;2023-05-10T12:16:12;14.60;99.90
69901;DHT22;57183;50.930;5.406;2023-05-10T12:18:40;14.70;99.90
69901;DHT22;57183;50.930;5.406;2023-05-10T12:21:06;14.80;99.90
69901;DHT22;57183;50.930;5.406;2023-05-10T12:23:32;14.90;99.90
69901;DHT22;57183;50.930;5.406;2023-05-10T12:26:04;15.00;99.90
69901;DHT22;57183;50.930;5.406;2023-05-10T12:28:31;15.10;99.90
69901;DHT22;57183;50.930;5.406;2023-05-10T12:30:58;15.30;99.90
69901;DHT22;57183;50.930;5.406;2023-05-10T12:33:24;15.30;99.90
69901;DHT22;57183;50.930;5.406;2023-05-10T12:35:52;15.50;99.90
69901;DHT22;57183;50.930;5.406;2023-05-10T12:38:40;15.50;99.90
69901;DHT22;57183;50.930;5.406;2023-05-10T12:41:12;15.50;99.90
69901;DHT22;57183;50.930;5.406;2023-05-10T12:43:39;15.40;99.90
69901;DHT22;57183;50.930;5.406;2023-05-10T12:46:10;15.30;99.90
69901;DHT22;57183;50.930;5.406;2023-05-10T12:48:36;15.40;99.90
69901;DHT22;57183;50.930;5.406;2023-05-10T12:51:03;15.40;99.90
69901;DHT22;57183;50.930;5.406;2023-05-10T12:53:29;15.40;99.90
69901;DHT22;57183;50.930;5.406;2023-05-10T12:55:56;15.60;99.90
69901;DHT22;57183;50.930;5.406;2023-05-10T12:58:21;15.80;99.90
69901;DHT22;57183;50.930;5.406;2023-05-10T13:00:47;15.80;99.90
69901;DHT22;57183;50.930;5.406;2023-05-10T13:03:13;15.90;99.90
69901;DHT22;57183;50.930;5.406;2023-05-10T13:05:40;15.80;99.90
69901;DHT22;57183;50.930;5.406;2023-05-10T13:08:05;15.70;99.90
69901;DHT22;57183;50.930;5.406;2023-05-10T13:10:31;15.60;99.90
69901;DHT22;57183;50.930;5.406;2023-05-10T13:12:58;15.60;99.90
69901;DHT22;57183;50.930;5.406;2023-05-10T13:15:24;15.50;99.90
69901;DHT22;57183;50.930;5.406;2023-05-10T13:17:50;15.40;99.90
69901;DHT22;57183;50.930;5.406;2023-05-10T13:20:16;15.30;99.90
69901;DHT22;57183;50.930;5.406;2023-05-10T13:22:45;15.50;99.90
69901;DHT22;57183;50.930;5.406;2023-05-10T13:25:11;15.40;99.90
69901;DHT22;57183;50.930;5.406;2023-05-10T13:27:41;15.40;99.90
69901;DHT22;57183;50.930;5.406;2023-05-10T13:30:08;15.40;99.90
69901;DHT22;57183;50.930;5.406;2023-05-10T13:32:34;15.50;99.90
69901;DHT22;57183;50.930;5.406;2023-05-10T13:35:00;15.40;99.90
69901;DHT22;57183;50.930;5.406;2023-05-10T13:37:25;15.40;99.90
69901;DHT22;57183;50.930;5.406;2023-05-10T13:39:51;15.40;99.90
69901;DHT22;57183;50.930;5.406;2023-05-10T13:42:17;15.60;99.90
69901;DHT22;57183;50.930;5.406;2023-05-10T13:44:43;15.60;99.90
69901;DHT22;57183;50.930;5.406;2023-05-10T13:47:09;15.60;99.90
69901;DHT22;57183;50.930;5.406;2023-05-10T13:49:35;15.50;99.90
69901;DHT22;57183;50.930;5.406;2023-05-10T13:52:01;15.40;99.90
69901;DHT22;57183;50.930;5.406;2023-05-10T13:54:33;15.40;99.90
69901;DHT22;57183;50.930;5.406;2023-05-10T13:56:59;15.30;99.90
69901;DHT22;57183;50.930;5.406;2023-05-10T13:59:25;15.40;99.90
69901;DHT22;57183;50.930;5.406;2023-05-10T14:01:50;15.60;99.90
69901;DHT22;57183;50.930;5.406;2023-05-10T14:04:16;15.70;99.90
69901;DHT22;57183;50.930;5.406;2023-05-10T14:06:42;15.60;99.90
69901;DHT22;57183;50.930;5.406;2023-05-10T14:09:08;15.70;99.90
69901;DHT22;57183;50.930;5.406;2023-05-10T14:11:34;15.80;99.90
69901;DHT22;57183;50.930;5.406;2023-05-10T14:13:59;16.00;99.90
69901;DHT22;57183;50.930;5.406;2023-05-10T14:16:25;15.90;99.90
69901;DHT22;57183;50.930;5.406;2023-05-10T14:18:51;15.90;99.90
69901;DHT22;57183;50.930;5.406;2023-05-10T14:21:17;15.80;99.90
69901;DHT22;57183;50.930;5.406;2023-05-10T14:23:42;15.80;99.90
69901;DHT22;57183;50.930;5.406;2023-05-10T14:26:08;15.90;99.90
69901;DHT22;57183;50.930;5.406;2023-05-10T14:28:34;15.90;99.90
69901;DHT22;57183;50.930;5.406;2023-05-10T14:30:59;16.20;99.90
69901;DHT22;57183;50.930;5.406;2023-05-10T14:33:25;16.50;99.90
69901;DHT22;57183;50.930;5.406;2023-05-10T14:35:51;16.90;99.90
69901;DHT22;57183;50.930;5.406;2023-05-10T14:38:16;17.00;99.90
69901;DHT22;57183;50.930;5.406;2023-05-10T14:40:42;17.00;99.90
69901;DHT22;57183;50.930;5.406;2023-05-10T14:43:08;16.90;99.90
69901;DHT22;57183;50.930;5.406;2023-05-10T14:45:34;17.10;99.90
69901;DHT22;57183;50.930;5.406;2023-05-10T14:48:00;17.30;99.90
69901;DHT22;57183;50.930;5.406;2023-05-10T14:50:26;17.50;99.90
69901;DHT22;57183;50.930;5.406;2023-05-10T14:52:53;17.70;99.90
69901;DHT22;57183;50.930;5.406;2023-05-10T14:55:19;17.70;99.90
69901;DHT22;57183;50.930;5.406;2023-05-10T14:57:45;17.80;99.90
69901;DHT22;57183;50.930;5.406;2023-05-10T15:00:13;17.80;99.90
69901;DHT22;57183;50.930;5.406;2023-05-10T15:02:40;17.60;99.90
69901;DHT22;57183;50.930;5.406;2023-05-10T15:05:07;17.40;99.90
69901;DHT22;57183;50.930;5.406;2023-05-10T15:07:32;17.20;99.90
69901;DHT22;57183;50.930;5.406;2023-05-10T15:09:58;17.00;99.90
69901;DHT22;57183;50.930;5.406;2023-05-10T15:12:24;16.80;99.90
69901;DHT22;57183;50.930;5.406;2023-05-10T15:14:49;16.80;99.90
69901;DHT22;57183;50.930;5.406;2023-05-10T15:17:15;16.70;99.90
69901;DHT22;57183;50.930;5.406;2023-05-10T15:19:41;16.80;99.90
69901;DHT22;57183;50.930;5.406;2023-05-10T15:22:08;16.80;99.90
69901;DHT22;57183;50.930;5.406;2023-05-10T15:24:34;16.90;99.90
69901;DHT22;57183;50.930;5.406;2023-05-10T15:26:59;16.90;99.90
69901;DHT22;57183;50.930;5.406;2023-05-10T15:29:26;17.00;99.90
69901;DHT22;57183;50.930;5.406;2023-05-10T15:31:51;17.00;99.90
69901;DHT22;57183;50.930;5.406;2023-05-10T15:34:18;17.00;99.90
69901;DHT22;57183;50.930;5.406;2023-05-10T15:36:44;17.10;99.90
69901;DHT22;57183;50.930;5.406;2023-05-10T15:39:11;17.00;99.90
69901;DHT22;57183;50.930;5.406;2023-05-10T15:41:37;17.10;99.90
69901;DHT22;57183;50.930;5.406;2023-05-10T15:44:03;17.30;99.90
69901;DHT22;57183;50.930;5.406;2023-05-10T15:46:29;17.60;99.90
69901;DHT22;57183;50.930;5.406;2023-05-10T15:48:55;18.00;99.90
69901;DHT22;57183;50.930;5.406;2023-05-10T15:51:21;18.30;99.90
69901;DHT22;57183;50.930;5.406;2023-05-10T15:53:47;18.40;99.90
69901;DHT22;57183;50.930;5.406;2023-05-10T15:56:14;18.50;99.90
69901;DHT22;57183;50.930;5.406;2023-05-10T15:58:40;18.40;99.90
69901;DHT22;57183;50.930;5.406;2023-05-10T16:01:06;18.50;99.90
69901;DHT22;57183;50.930;5.406;2023-05-10T16:03:33;18.40;99.90
69901;DHT22;57183;50.930;5.406;2023-05-10T16:05:59;18.20;99.90
69901;DHT22;57183;50.930;5.406;2023-05-10T16:08:25;18.20;99.90
69901;DHT22;57183;50.930;5.406;2023-05-10T16:10:51;18.00;99.90
69901;DHT22;57183;50.930;5.406;2023-05-10T16:13:17;17.90;99.90
69901;DHT22;57183;50.930;5.406;2023-05-10T16:15:43;17.90;99.90
69901;DHT22;57183;50.930;5.406;2023-05-10T16:18:09;17.80;99.90
69901;DHT22;57183;50.930;5.406;2023-05-10T16:20:35;17.90;99.90